NWWW METAR and TAF weather

Enter ICAO airport designator
Station Type Date Time Source
NWWW METAR 2019/08/25 20:00 UTC NOAA

NWWW 252000Z AUTO VRB03KT 9999 FEW037 17/13 Q1019 NOSIG


Station Type Date Time Source
NWWW Decoded METAR 2019/08/25 20:00 UTC NOAA

Station name not available
Aug 25, 2019 - 04:00 PM EDT / 2019.08.25 2000 UTC
Wind: Variable at 3 MPH (3 KT):0
Visibility: greater than 7 mile(s):0
Sky conditions: mostly clear
Temperature: 62 F (17 C)
Dew Point: 55 F (13 C)
Relative Humidity: 77%
Pressure (altimeter): 30.09 in. Hg (1019 hPa)
ob: NWWW 252000Z AUTO VRB03KT 9999 FEW037 17/13 Q1019 NOSIG
cycle: 20

Station Type Date Time Source
NWWW TAF 2019/08/25 18:25 UTC NOAA

TAF NWWW 251700Z 2518/2618 08006KT 9999 SCT050
BECMG 2522/2524 16012KT

Example: see airport list